Time;durP1;ratioP1;P1;durP2;ratioP2;P2;SDS_P1;SDS_P2;PMS_P1;PMS_P2;Temp;Humidity;BMP_temperature;BMP_pressure;BME280_temperature;BME280_humidity;BME280_pressure;Samples;Min_cycle;Max_cycle;Signal;HPM_P1;HPM_P2
2023/10/26 00:01:18;;;;;;;1338.03;999.90;;;10.70;99.90;;;;;;5014668;28;20453;-79
2023/10/26 00:03:47;;;;;;;1326.37;999.90;;;10.70;99.90;;;;;;5015194;28;20461;-79
2023/10/26 00:06:13;;;;;;;1317.83;999.90;;;10.70;99.90;;;;;;5014923;28;20486;-80
2023/10/26 00:08:40;;;;;;;1309.77;999.90;;;10.70;99.90;;;;;;5015594;28;20888;-80
2023/10/26 00:11:07;;;;;;;1311.13;999.90;;;10.70;99.90;;;;;;5015146;28;20463;-79
2023/10/26 00:13:34;;;;;;;1330.43;999.90;;;10.70;99.90;;;;;;5015162;28;20799;-79
2023/10/26 00:16:01;;;;;;;1353.20;999.90;;;10.70;99.90;;;;;;5033732;28;20536;-78
2023/10/26 00:18:28;;;;;;;1330.33;999.90;;;10.70;99.90;;;;;;5028491;28;20473;-78
2023/10/26 00:21:00;;;;;;;1330.87;999.90;;;10.70;99.90;;;;;;5015189;28;20839;-78
2023/10/26 00:23:27;;;;;;;1325.60;999.90;;;10.70;99.90;;;;;;5014864;28;20548;-78
2023/10/26 00:25:54;;;;;;;1319.13;999.90;;;10.60;99.90;;;;;;5015143;28;20490;-78
2023/10/26 00:28:21;;;;;;;1333.40;999.90;;;10.60;99.90;;;;;;5014902;28;20490;-78
2023/10/26 00:30:48;;;;;;;1331.40;999.90;;;10.60;99.90;;;;;;5006625;28;20481;-78
2023/10/26 00:33:15;;;;;;;1314.27;999.90;;;10.70;99.90;;;;;;5026740;28;20949;-78
2023/10/26 00:35:42;;;;;;;1303.87;999.90;;;10.70;99.90;;;;;;5034244;28;20448;-78
2023/10/26 00:38:10;;;;;;;1324.67;999.90;;;10.70;99.90;;;;;;5016836;28;20453;-78
2023/10/26 00:40:37;;;;;;;1321.77;999.90;;;10.70;99.90;;;;;;5014791;28;20450;-79
2023/10/26 00:43:04;;;;;;;1330.13;999.90;;;10.70;99.90;;;;;;5014614;28;20482;-79
2023/10/26 00:45:34;;;;;;;1326.77;999.90;;;10.60;99.90;;;;;;5027961;28;20468;-79
2023/10/26 00:48:01;;;;;;;1354.27;999.90;;;10.60;99.90;;;;;;5034136;28;20452;-79
2023/10/26 00:50:29;;;;;;;1340.03;999.90;;;10.60;99.90;;;;;;5034460;28;20898;-79
2023/10/26 00:52:57;;;;;;;1342.73;999.90;;;10.70;99.90;;;;;;5033996;28;20456;-79
2023/10/26 00:55:26;;;;;;;1348.57;999.90;;;10.60;99.90;;;;;;5032553;28;20452;-79
2023/10/26 00:57:53;;;;;;;1341.10;999.90;;;10.60;99.90;;;;;;5033645;28;20448;-78
2023/10/26 01:00:21;;;;;;;1342.67;999.90;;;10.60;99.90;;;;;;5034030;28;20540;-78
2023/10/26 01:02:48;;;;;;;1346.57;999.90;;;10.70;99.90;;;;;;5033818;28;20517;-78
2023/10/26 01:05:15;;;;;;;1360.90;999.90;;;10.70;99.90;;;;;;5033365;28;20458;-78
2023/10/26 01:07:42;;;;;;;1359.90;999.90;;;10.70;99.90;;;;;;5033944;28;20526;-79
2023/10/26 01:10:10;;;;;;;1358.30;999.90;;;10.70;99.90;;;;;;5015560;28;20456;-78
2023/10/26 01:12:38;;;;;;;1345.83;999.90;;;10.70;99.90;;;;;;5013645;28;20466;-78
2023/10/26 01:15:07;;;;;;;1336.97;999.90;;;10.70;99.90;;;;;;5013871;28;20461;-78
2023/10/26 01:17:35;;;;;;;1330.33;999.90;;;10.70;99.90;;;;;;5013967;28;20448;-78
2023/10/26 01:20:02;;;;;;;1317.03;999.90;;;10.70;99.90;;;;;;5026440;28;20510;-78
2023/10/26 01:22:33;;;;;;;1333.90;999.90;;;10.70;99.90;;;;;;5028895;28;20460;-78
2023/10/26 01:25:00;;;;;;;1351.63;999.90;;;10.70;99.90;;;;;;5021782;28;20545;-78
2023/10/26 01:27:27;;;;;;;1336.63;999.90;;;10.70;99.90;;;;;;5033266;28;20486;-78
2023/10/26 01:29:55;;;;;;;1336.83;999.90;;;10.70;99.90;;;;;;5029323;28;20453;-78
2023/10/26 01:32:22;;;;;;;1334.30;999.90;;;10.70;99.90;;;;;;5013924;28;20452;-78
2023/10/26 01:34:49;;;;;;;1353.83;999.90;;;10.60;99.90;;;;;;5017105;28;20978;-78
2023/10/26 01:37:15;;;;;;;1342.93;999.90;;;10.70;99.90;;;;;;5033247;28;20448;-77
2023/10/26 01:39:43;;;;;;;1326.67;999.90;;;10.60;99.90;;;;;;5033229;28;20555;-77
2023/10/26 01:42:12;;;;;;;1329.83;999.90;;;10.60;99.90;;;;;;5033081;28;20455;-77
2023/10/26 01:44:38;;;;;;;1348.40;999.90;;;10.60;99.90;;;;;;5033456;28;20460;-77
2023/10/26 01:47:06;;;;;;;1320.07;999.90;;;10.60;99.90;;;;;;5025800;28;20588;-77
2023/10/26 01:49:33;;;;;;;1313.33;999.90;;;10.60;99.90;;;;;;5013232;28;20959;-76
2023/10/26 01:51:59;;;;;;;1295.07;999.90;;;10.50;99.90;;;;;;5013153;28;20466;-76
2023/10/26 01:54:26;;;;;;;1280.23;999.90;;;10.50;99.90;;;;;;5013506;28;20463;-76
2023/10/26 01:56:54;;;;;;;1269.03;999.90;;;10.50;99.90;;;;;;5013055;28;20456;-76
2023/10/26 01:59:21;;;;;;;1259.67;999.90;;;10.40;99.90;;;;;;5013260;28;20461;-76
2023/10/26 02:01:48;;;;;;;1279.67;999.90;;;10.40;99.90;;;;;;5006154;28;20944;-76
2023/10/26 02:04:15;;;;;;;1278.70;999.90;;;10.40;99.90;;;;;;5013061;28;20451;-76
2023/10/26 02:06:41;;;;;;;1277.73;999.90;;;10.40;99.90;;;;;;5012582;28;20480;-76
2023/10/26 02:09:08;;;;;;;1267.87;999.90;;;10.40;99.90;;;;;;5021805;28;20452;-76
2023/10/26 02:11:35;;;;;;;1235.03;999.90;;;10.40;99.90;;;;;;5032597;28;20543;-77
2023/10/26 02:14:03;;;;;;;1260.23;999.90;;;10.40;99.90;;;;;;5032396;28;20543;-76
2023/10/26 02:16:32;;;;;;;1248.37;999.90;;;10.40;99.90;;;;;;5032225;28;20947;-76
2023/10/26 02:18:59;;;;;;;1244.87;999.90;;;10.40;99.90;;;;;;5017224;28;20454;-76
2023/10/26 02:21:26;;;;;;;1260.00;999.90;;;10.40;99.90;;;;;;5012845;28;20539;-76
2023/10/26 02:23:52;;;;;;;1227.30;999.90;;;10.40;99.90;;;;;;5027848;28;20475;-76
2023/10/26 02:26:19;;;;;;;1214.87;999.90;;;10.40;99.90;;;;;;5032519;28;20485;-76
2023/10/26 02:28:46;;;;;;;1226.40;999.90;;;10.40;99.90;;;;;;5027409;28;20453;-76
2023/10/26 02:31:14;;;;;;;1194.57;999.90;;;10.50;99.90;;;;;;5015425;28;20546;-76
2023/10/26 02:33:41;;;;;;;1178.10;999.90;;;10.40;99.90;;;;;;5019400;28;20542;-76
2023/10/26 02:36:09;;;;;;;1172.40;999.90;;;10.40;99.90;;;;;;5032352;28;20737;-76
2023/10/26 02:38:35;;;;;;;1155.33;999.90;;;10.40;99.90;;;;;;5030843;28;20534;-76
2023/10/26 02:41:07;;;;;;;1136.67;999.90;;;10.50;99.90;;;;;;5027444;28;20459;-76
2023/10/26 02:43:33;;;;;;;1133.37;999.90;;;10.40;99.90;;;;;;5019783;28;20460;-76
2023/10/26 02:46:02;;;;;;;1110.67;988.53;;;10.40;99.90;;;;;;5012348;28;21014;-76
2023/10/26 02:48:30;;;;;;;1093.87;973.07;;;10.40;99.90;;;;;;5021748;28;20524;-76
2023/10/26 02:50:57;;;;;;;1086.50;966.20;;;10.30;99.90;;;;;;5032445;28;20543;-76
2023/10/26 02:53:24;;;;;;;1065.50;946.90;;;10.30;99.90;;;;;;5032088;28;20456;-75
2023/10/26 02:55:50;;;;;;;1052.00;934.97;;;10.20;99.90;;;;;;5032045;28;20929;-76
2023/10/26 02:58:17;;;;;;;1059.17;940.80;;;10.20;99.90;;;;;;5032065;28;20456;-76
2023/10/26 03:00:44;;;;;;;1042.90;912.50;;;10.20;99.90;;;;;;5019189;28;20445;-76
2023/10/26 03:03:11;;;;;;;1046.63;904.67;;;10.20;99.90;;;;;;5012362;28;20532;-76
2023/10/26 03:05:39;;;;;;;1036.50;901.67;;;10.20;99.90;;;;;;5012053;28;20503;-76
2023/10/26 03:08:06;;;;;;;1034.53;890.57;;;10.20;99.90;;;;;;5012247;28;20463;-76
2023/10/26 03:10:34;;;;;;;1036.50;880.77;;;10.10;99.90;;;;;;5012364;28;20453;-76
2023/10/26 03:13:00;;;;;;;1040.77;883.37;;;10.10;99.90;;;;;;5011759;28;20469;-76
2023/10/26 03:15:27;;;;;;;1034.93;884.03;;;10.10;99.90;;;;;;5013298;28;20547;-76
2023/10/26 03:17:54;;;;;;;1038.63;900.10;;;10.10;99.90;;;;;;5016292;28;20445;-76
2023/10/26 03:20:21;;;;;;;1025.87;891.37;;;10.10;99.90;;;;;;5031839;28;20449;-76
2023/10/26 03:22:49;;;;;;;1031.50;895.93;;;10.10;99.90;;;;;;5031499;28;20459;-76
2023/10/26 03:25:16;;;;;;;1005.47;878.70;;;10.20;99.90;;;;;;5029855;28;20452;-76
2023/10/26 03:27:43;;;;;;;1000.07;871.57;;;10.20;99.90;;;;;;5031516;28;20567;-76
2023/10/26 03:30:11;;;;;;;1000.07;876.63;;;10.20;99.90;;;;;;5029922;28;20452;-76
2023/10/26 03:32:38;;;;;;;994.40;861.73;;;10.20;99.90;;;;;;5028763;28;20452;-76
2023/10/26 03:35:05;;;;;;;1004.60;873.63;;;10.20;99.90;;;;;;5031943;28;20456;-76
2023/10/26 03:37:32;;;;;;;996.60;863.83;;;10.10;99.90;;;;;;5018063;28;20451;-76
2023/10/26 03:40:00;;;;;;;997.17;872.50;;;10.10;99.90;;;;;;5016505;28;20452;-79
2023/10/26 03:42:27;;;;;;;989.77;870.90;;;10.20;99.90;;;;;;5001022;28;20449;-76
2023/10/26 03:44:54;;;;;;;972.03;862.40;;;10.10;99.90;;;;;;5015697;28;20455;-77
2023/10/26 03:47:21;;;;;;;963.57;854.90;;;10.10;99.90;;;;;;5033781;28;20488;-77
2023/10/26 03:49:51;;;;;;;951.03;845.53;;;10.10;99.90;;;;;;5034783;28;20540;-77
2023/10/26 03:52:18;;;;;;;961.83;847.53;;;10.00;99.90;;;;;;5035480;28;20483;-77
2023/10/26 03:54:45;;;;;;;971.40;844.63;;;10.00;99.90;;;;;;5035329;28;20454;-77
2023/10/26 03:57:13;;;;;;;985.00;837.77;;;10.00;99.90;;;;;;5032608;28;20452;-77
2023/10/26 03:59:40;;;;;;;983.37;820.87;;;10.00;99.90;;;;;;5028682;28;20540;-77
2023/10/26 04:02:07;;;;;;;990.63;829.37;;;9.80;99.90;;;;;;5030259;28;20461;-77
2023/10/26 04:04:34;;;;;;;990.17;843.67;;;10.00;99.90;;;;;;5029860;28;20778;-77
2023/10/26 04:07:01;;;;;;;1007.37;841.23;;;9.90;99.90;;;;;;5024012;28;20487;-77
2023/10/26 04:09:28;;;;;;;1010.43;830.30;;;9.90;99.90;;;;;;5023740;28;20549;-78
2023/10/26 04:11:55;;;;;;;1002.73;842.73;;;9.90;99.90;;;;;;5021676;28;20451;-77
2023/10/26 04:14:23;;;;;;;1007.43;845.60;;;9.90;99.90;;;;;;5017213;28;20464;-77
2023/10/26 04:16:50;;;;;;;1033.77;851.13;;;9.90;99.90;;;;;;5018787;28;20459;-77
2023/10/26 04:19:17;;;;;;;1019.27;851.73;;;9.90;99.90;;;;;;5016701;28;20449;-77
2023/10/26 04:21:44;;;;;;;1022.93;857.13;;;9.90;99.90;;;;;;5024515;28;20460;-78
2023/10/26 04:24:11;;;;;;;1022.20;860.47;;;9.80;99.90;;;;;;5026142;28;20724;-77
2023/10/26 04:26:37;;;;;;;999.83;831.37;;;9.70;99.90;;;;;;5024380;28;20496;-77
2023/10/26 04:29:05;;;;;;;999.93;828.90;;;9.70;99.90;;;;;;5016865;28;20453;-78
2023/10/26 04:31:34;;;;;;;1019.37;839.70;;;9.60;99.90;;;;;;5023745;28;20458;-77
2023/10/26 04:34:01;;;;;;;1007.17;839.63;;;9.60;99.90;;;;;;5023085;28;20451;-77
2023/10/26 04:36:28;;;;;;;1024.60;825.97;;;9.60;99.90;;;;;;5034265;28;20457;-77
2023/10/26 04:38:56;;;;;;;1041.43;828.57;;;9.50;99.90;;;;;;5034482;28;20477;-77
2023/10/26 04:41:22;;;;;;;1042.00;831.70;;;9.50;99.90;;;;;;5028157;28;20822;-77
2023/10/26 04:43:49;;;;;;;1053.63;838.40;;;9.40;99.90;;;;;;5032220;28;20542;-77
2023/10/26 04:46:16;;;;;;;1041.13;830.83;;;9.20;99.90;;;;;;5020724;28;20454;-77
2023/10/26 04:48:44;;;;;;;1071.97;834.47;;;9.10;99.90;;;;;;5014570;28;20457;-77
2023/10/26 04:51:11;;;;;;;1063.27;837.67;;;9.00;99.90;;;;;;5017951;28;20449;-77
2023/10/26 04:53:38;;;;;;;1078.07;847.83;;;8.90;99.90;;;;;;5033906;28;20458;-77
2023/10/26 04:56:06;;;;;;;1087.00;849.17;;;8.90;99.90;;;;;;5034275;28;20452;-77
2023/10/26 04:58:33;;;;;;;1103.37;854.30;;;8.80;99.90;;;;;;5034198;28;20442;-77
2023/10/26 05:01:00;;;;;;;1102.70;847.50;;;8.90;99.90;;;;;;5031401;28;20550;-76
2023/10/26 05:03:27;;;;;;;1119.47;849.20;;;8.90;99.90;;;;;;5031034;28;20451;-77
2023/10/26 05:05:55;;;;;;;1116.43;849.17;;;9.00;99.90;;;;;;5032763;28;20473;-77
2023/10/26 05:08:22;;;;;;;1138.97;853.37;;;9.00;99.90;;;;;;5021755;28;20844;-77
2023/10/26 05:10:48;;;;;;;1129.47;850.60;;;9.10;99.90;;;;;;5022242;28;20966;-77
2023/10/26 05:13:15;;;;;;;1149.10;851.43;;;9.20;99.90;;;;;;5033636;28;20480;-77
2023/10/26 05:15:44;;;;;;;1160.37;881.27;;;9.20;99.90;;;;;;5033466;28;20457;-77
2023/10/26 05:18:11;;;;;;;1167.57;864.00;;;9.20;99.90;;;;;;5033601;28;20458;-77
2023/10/26 05:20:39;;;;;;;1162.70;853.93;;;9.20;99.90;;;;;;5033521;28;20472;-77
2023/10/26 05:23:08;;;;;;;1151.77;869.33;;;9.30;99.90;;;;;;5017145;28;20445;-77
2023/10/26 05:25:37;;;;;;;1142.87;880.63;;;9.30;99.90;;;;;;5025834;28;20515;-77
2023/10/26 05:28:04;;;;;;;1122.00;875.57;;;9.30;99.90;;;;;;5028461;28;20510;-77
2023/10/26 05:30:31;;;;;;;1123.47;885.73;;;9.30;99.90;;;;;;5020544;28;20454;-77
2023/10/26 05:32:58;;;;;;;1093.10;862.50;;;9.20;99.90;;;;;;5021595;28;20449;-77
2023/10/26 05:35:25;;;;;;;1077.60;862.00;;;9.10;99.90;;;;;;5023339;28;20540;-77
2023/10/26 05:37:52;;;;;;;1067.23;856.13;;;9.00;99.90;;;;;;5022905;28;20525;-77
2023/10/26 05:40:20;;;;;;;1073.63;847.77;;;8.90;99.90;;;;;;5015973;28;20452;-77
2023/10/26 05:42:47;;;;;;;1086.88;861.33;;;8.60;99.90;;;;;;5026505;28;20938;-79
2023/10/26 05:45:14;;;;;;;1022.07;848.20;;;8.50;99.90;;;;;;5021321;28;20652;-78
2023/10/26 05:47:41;;;;;;;1028.83;845.63;;;8.50;99.90;;;;;;5013392;28;20477;-78
2023/10/26 05:50:09;;;;;;;1043.67;845.37;;;8.40;99.90;;;;;;5022449;28;20462;-78
2023/10/26 05:52:36;;;;;;;1045.87;859.93;;;8.30;99.90;;;;;;5023399;28;20458;-78
2023/10/26 05:55:06;;;;;;;1059.53;868.60;;;8.20;99.90;;;;;;5013144;28;20461;-78
2023/10/26 05:57:34;;;;;;;1085.77;869.07;;;8.00;99.90;;;;;;5012597;28;20455;-78
2023/10/26 06:00:01;;;;;;;1101.93;842.33;;;7.90;99.90;;;;;;5012872;28;20453;-78
2023/10/26 06:02:29;;;;;;;1297.22;912.70;;;7.80;99.90;;;;;;5013649;28;20469;-76
2023/10/26 06:04:56;;;;;;;1175.13;866.33;;;7.80;99.90;;;;;;5013142;28;20565;-76
2023/10/26 06:07:22;;;;;;;1153.33;844.57;;;7.70;99.90;;;;;;5012659;28;20491;-76
2023/10/26 06:09:50;;;;;;;1165.93;847.77;;;7.70;99.90;;;;;;5012576;28;20450;-76
2023/10/26 06:12:17;;;;;;;1182.40;846.03;;;7.70;99.90;;;;;;5012848;28;20941;-76
2023/10/26 06:14:45;;;;;;;1206.43;833.93;;;7.60;99.90;;;;;;5012969;28;20544;-76
2023/10/26 06:17:12;;;;;;;1210.73;844.83;;;7.40;99.90;;;;;;5012669;28;20454;-77
2023/10/26 06:19:39;;;;;;;1223.03;850.27;;;7.40;99.90;;;;;;5013023;28;20551;-77
2023/10/26 06:22:06;;;;;;;1223.33;839.90;;;7.30;99.90;;;;;;5012777;28;20933;-76
2023/10/26 06:24:33;;;;;;;1220.63;827.90;;;7.20;99.90;;;;;;5012988;28;20529;-76
2023/10/26 06:27:00;;;;;;;1215.47;820.40;;;7.20;99.90;;;;;;5012517;28;21025;-77
2023/10/26 06:29:27;;;;;;;1201.53;812.13;;;7.10;99.90;;;;;;5012688;28;20541;-76
2023/10/26 06:31:55;;;;;;;1219.53;824.37;;;7.00;99.90;;;;;;5012636;28;20855;-77
2023/10/26 06:34:22;;;;;;;1231.47;828.60;;;6.90;99.90;;;;;;5012714;28;20453;-76
2023/10/26 06:36:49;;;;;;;1240.83;834.97;;;7.00;99.90;;;;;;5012556;28;20485;-77
2023/10/26 06:39:16;;;;;;;1237.83;829.03;;;7.10;99.90;;;;;;5012566;28;20944;-76
2023/10/26 06:41:43;;;;;;;1245.17;833.77;;;7.20;99.90;;;;;;5012600;28;20515;-76
2023/10/26 06:44:09;;;;;;;1236.67;831.73;;;7.40;99.90;;;;;;5012304;28;20449;-77
2023/10/26 06:46:36;;;;;;;1248.57;835.07;;;7.50;99.90;;;;;;5012306;28;20453;-77
2023/10/26 06:49:05;;;;;;;1259.40;853.20;;;7.60;99.90;;;;;;5012548;28;20513;-77
2023/10/26 06:51:31;;;;;;;1276.17;863.40;;;7.70;99.90;;;;;;5012539;28;20536;-77
2023/10/26 06:53:58;;;;;;;1274.67;862.27;;;7.80;99.90;;;;;;5012398;28;20461;-76
2023/10/26 06:56:25;;;;;;;1292.40;863.83;;;7.80;99.90;;;;;;5011271;28;20448;-76
2023/10/26 06:58:52;;;;;;;1291.20;851.40;;;7.80;99.90;;;;;;5012346;28;20449;-76
2023/10/26 07:01:19;;;;;;;1288.77;859.73;;;7.90;99.90;;;;;;5012181;28;20453;-77
2023/10/26 07:03:46;;;;;;;1272.37;861.07;;;7.80;99.90;;;;;;5011836;28;20544;-77
2023/10/26 07:06:14;;;;;;;1273.80;867.37;;;7.80;99.90;;;;;;5011886;28;20901;-76
2023/10/26 07:08:41;;;;;;;1270.63;845.77;;;7.80;99.90;;;;;;5012426;28;20487;-76
2023/10/26 07:11:08;;;;;;;1287.33;853.83;;;7.90;99.90;;;;;;5015632;28;20444;-76
2023/10/26 07:13:35;;;;;;;1285.53;871.43;;;7.90;99.90;;;;;;5016065;28;20535;-76
2023/10/26 07:16:03;;;;;;;1293.73;864.13;;;8.00;99.90;;;;;;5015655;28;20462;-77
2023/10/26 07:18:30;;;;;;;1289.00;875.10;;;8.20;99.90;;;;;;5015687;28;20449;-76
2023/10/26 07:20:57;;;;;;;1283.43;874.17;;;8.30;99.90;;;;;;5015839;28;20457;-76
2023/10/26 07:23:26;;;;;;;1308.20;904.20;;;8.50;99.90;;;;;;5015809;28;20829;-76
2023/10/26 07:25:53;;;;;;;1302.10;890.40;;;8.70;99.90;;;;;;5015256;28;20929;-76
2023/10/26 07:28:20;;;;;;;1293.07;888.70;;;8.80;99.90;;;;;;5015732;28;20479;-77
2023/10/26 07:30:50;;;;;;;1296.17;902.07;;;8.90;99.90;;;;;;5015713;28;20453;-77
2023/10/26 07:33:19;;;;;;;1301.13;895.53;;;9.00;99.90;;;;;;5015518;28;20462;-76
2023/10/26 07:35:50;;;;;;;1306.20;912.87;;;9.20;99.90;;;;;;5015327;28;20451;-76
2023/10/26 07:38:17;;;;;;;1282.37;899.40;;;9.30;99.90;;;;;;5015167;28;20517;-76
2023/10/26 07:40:50;;;;;;;1298.37;912.27;;;9.40;99.90;;;;;;5015325;28;20482;-76
2023/10/26 07:43:17;;;;;;;1287.27;905.73;;;9.50;99.90;;;;;;5015296;28;20484;-76
2023/10/26 07:45:44;;;;;;;1248.53;875.83;;;9.60;99.90;;;;;;5015194;28;20453;-76
2023/10/26 07:48:11;;;;;;;1242.10;880.13;;;9.70;99.90;;;;;;5015180;28;20474;-76
2023/10/26 07:50:38;;;;;;;1254.30;891.50;;;9.80;99.90;;;;;;5015236;28;20451;-76
2023/10/26 07:53:05;;;;;;;1247.50;875.77;;;10.00;99.90;;;;;;5014956;28;20517;-76
2023/10/26 07:55:33;;;;;;;1229.37;853.77;;;10.10;99.90;;;;;;5015224;28;20450;-75
2023/10/26 07:58:02;;;;;;;1205.43;855.30;;;10.20;99.90;;;;;;5015430;28;20456;-75
2023/10/26 08:00:29;;;;;;;1189.10;864.20;;;10.30;99.90;;;;;;5015060;28;20930;-76
2023/10/26 08:02:57;;;;;;;1147.60;844.43;;;10.50;99.90;;;;;;5015140;28;20545;-75
2023/10/26 08:05:24;;;;;;;1126.00;845.63;;;10.70;99.90;;;;;;5015149;28;20459;-76
2023/10/26 08:07:52;;;;;;;1050.73;823.60;;;10.80;99.90;;;;;;5015075;28;20512;-76
2023/10/26 08:10:19;;;;;;;986.23;832.57;;;10.90;99.90;;;;;;5015195;28;20458;-75
2023/10/26 08:12:46;;;;;;;944.57;840.20;;;10.90;99.90;;;;;;5015209;28;20454;-75
2023/10/26 08:15:14;;;;;;;940.80;847.17;;;11.10;99.90;;;;;;5015245;28;20785;-75
2023/10/26 08:17:41;;;;;;;949.07;857.37;;;11.20;99.90;;;;;;5015116;28;20969;-76
2023/10/26 08:20:09;;;;;;;938.87;848.30;;;11.40;99.90;;;;;;5014405;28;20542;-75
2023/10/26 08:22:36;;;;;;;940.57;857.97;;;11.50;99.90;;;;;;5015034;28;20543;-75
2023/10/26 08:25:03;;;;;;;944.73;869.67;;;11.60;99.90;;;;;;5014773;28;20971;-75
2023/10/26 08:27:31;;;;;;;936.60;866.60;;;11.70;99.90;;;;;;5014947;28;20539;-75
2023/10/26 08:29:58;;;;;;;938.07;876.13;;;11.80;99.90;;;;;;5014809;28;20956;-75
2023/10/26 08:32:26;;;;;;;914.83;858.43;;;11.80;99.90;;;;;;5014557;28;20462;-75
2023/10/26 08:34:53;;;;;;;851.63;803.50;;;11.80;99.90;;;;;;5014855;28;20448;-75
2023/10/26 08:37:19;;;;;;;822.77;777.97;;;11.90;99.90;;;;;;5014882;28;20479;-75
2023/10/26 08:39:46;;;;;;;838.47;792.77;;;12.00;99.90;;;;;;5014794;28;20453;-75
2023/10/26 08:42:13;;;;;;;774.33;735.43;;;12.00;99.90;;;;;;5014536;28;20460;-75
2023/10/26 08:44:42;;;;;;;765.10;727.20;;;12.10;99.90;;;;;;5014559;28;21020;-75
2023/10/26 08:47:12;;;;;;;697.00;665.00;;;12.10;99.90;;;;;;5014335;28;21019;-75
2023/10/26 08:49:44;;;;;;;791.57;752.70;;;12.20;99.90;;;;;;5014564;28;20543;-75
2023/10/26 08:52:11;;;;;;;764.40;726.60;;;12.30;99.90;;;;;;5014603;28;20466;-75
2023/10/26 08:54:38;;;;;;;593.70;567.60;;;12.20;99.90;;;;;;5014355;28;20457;-75
2023/10/26 08:57:07;;;;;;;741.43;706.10;;;12.20;99.90;;;;;;5014222;28;20460;-75
2023/10/26 08:59:34;;;;;;;491.50;471.00;;;12.20;99.90;;;;;;5014207;28;20515;-75
2023/10/26 09:02:01;;;;;;;562.03;538.83;;;12.00;99.90;;;;;;5014408;28;20451;-75
2023/10/26 09:04:28;;;;;;;536.80;514.80;;;11.80;99.90;;;;;;5014300;28;20452;-75
2023/10/26 09:06:56;;;;;;;569.00;544.67;;;12.00;99.90;;;;;;5013949;28;20461;-75
2023/10/26 09:09:23;;;;;;;473.17;454.07;;;12.00;99.90;;;;;;5014031;28;21068;-75
2023/10/26 09:11:50;;;;;;;450.23;432.13;;;11.90;99.90;;;;;;5014079;28;20461;-75
2023/10/26 09:14:18;;;;;;;534.10;512.30;;;11.80;99.90;;;;;;5013834;28;20460;-75
2023/10/26 09:16:46;;;;;;;555.27;532.50;;;11.70;99.90;;;;;;5014046;28;20462;-75
2023/10/26 09:19:14;;;;;;;666.67;636.87;;;11.60;99.90;;;;;;5014103;28;20816;-74
2023/10/26 09:21:51;;;;;;;700.40;668.40;;;11.70;99.90;;;;;;5014044;28;20452;-75
2023/10/26 09:24:21;;;;;;;759.53;722.87;;;11.90;99.90;;;;;;5014012;28;20797;-75
2023/10/26 09:26:48;;;;;;;622.83;594.80;;;12.30;99.90;;;;;;5013688;28;20452;-75
2023/10/26 09:29:15;;;;;;;402.83;385.80;;;12.70;99.90;;;;;;5013859;28;20503;-75
2023/10/26 09:31:53;;;;;;;267.80;256.97;;;13.00;99.90;;;;;;5014059;28;20547;-75
2023/10/26 09:34:24;;;;;;;148.33;141.40;;;13.30;99.90;;;;;;5013749;28;20479;-75
2023/10/26 09:37:04;;;;;;;109.90;104.00;;;13.50;99.90;;;;;;5013602;28;20457;-75
2023/10/26 09:39:34;;;;;;;75.13;70.63;;;13.70;99.90;;;;;;5013887;28;20453;-75
2023/10/26 09:42:01;;;;;;;24.07;21.37;;;14.00;99.90;;;;;;5013663;28;20481;-75
2023/10/26 09:44:28;;;;;;;24.23;17.30;;;14.00;99.90;;;;;;5013586;28;20940;-75
2023/10/26 09:46:56;;;;;;;24.67;19.17;;;13.90;99.90;;;;;;5013369;28;20949;-75
2023/10/26 09:49:24;;;;;;;26.43;20.80;;;13.80;99.90;;;;;;5013385;28;20571;-75
2023/10/26 09:51:51;;;;;;;24.83;22.10;;;14.40;99.90;;;;;;5013362;28;20449;-75
2023/10/26 09:54:21;;;;;;;26.30;20.90;;;14.30;99.40;;;;;;5013311;28;20941;-75
2023/10/26 09:56:52;;;;;;;21.17;17.70;;;14.30;99.90;;;;;;5013443;28;20515;-75
2023/10/26 09:59:20;;;;;;;25.30;21.30;;;14.10;99.90;;;;;;5013412;28;20476;-75
2023/10/26 10:01:47;;;;;;;26.90;23.13;;;14.20;99.90;;;;;;5013331;28;20875;-75
2023/10/26 10:04:14;;;;;;;29.93;24.37;;;14.20;99.90;;;;;;5013102;28;20550;-75
2023/10/26 10:06:49;;;;;;;33.57;29.70;;;14.10;99.90;;;;;;5013087;28;20461;-75
2023/10/26 10:09:19;;;;;;;32.87;29.20;;;14.20;99.90;;;;;;5013253;28;20489;-75
2023/10/26 10:11:46;;;;;;;33.20;29.83;;;14.10;99.90;;;;;;5013309;28;20816;-75
2023/10/26 10:14:47;;;;;;;40.00;36.27;;;14.10;99.90;;;;;;5013118;28;20933;-75
2023/10/26 10:17:15;;;;;;;31.50;28.30;;;14.10;99.90;;;;;;5012748;28;20916;-75
2023/10/26 10:19:43;;;;;;;28.10;25.00;;;13.80;99.90;;;;;;5012831;28;20537;-75
2023/10/26 10:22:46;;;;;;;29.57;26.77;;;13.80;99.90;;;;;;5012650;28;20803;-75
2023/10/26 10:25:14;;;;;;;29.13;26.13;;;13.90;99.90;;;;;;5012263;28;20456;-75
2023/10/26 10:27:41;;;;;;;25.97;22.20;;;14.00;99.90;;;;;;5012308;28;20556;-75
2023/10/26 10:30:11;;;;;;;26.57;23.87;;;14.00;99.90;;;;;;5012501;28;20516;-75
2023/10/26 10:32:53;;;;;;;25.20;19.47;;;14.10;99.90;;;;;;5012756;28;20453;-75
2023/10/26 10:35:43;;;;;;;21.73;18.13;;;14.20;99.90;;;;;;5012667;28;20485;-75
2023/10/26 10:38:22;;;;;;;21.70;17.60;;;14.20;99.90;;;;;;5012524;28;20567;-75
2023/10/26 10:41:08;;;;;;;22.30;17.73;;;14.20;99.90;;;;;;5012330;28;20504;-75
2023/10/26 10:43:37;;;;;;;23.70;17.23;;;14.30;99.90;;;;;;5012192;28;20453;-75
2023/10/26 10:46:15;;;;;;;18.77;12.70;;;14.40;99.90;;;;;;5012615;28;20453;-75
2023/10/26 10:49:04;;;;;;;19.17;14.50;;;14.60;99.50;;;;;;5012298;28;20480;-75
2023/10/26 10:51:32;;;;;;;25.73;14.70;;;14.70;99.50;;;;;;5012162;28;20511;-75
2023/10/26 10:53:59;;;;;;;18.50;14.00;;;15.30;99.80;;;;;;5012322;28;20464;-75
2023/10/26 10:56:26;;;;;;;15.93;11.73;;;15.60;97.70;;;;;;5011656;28;20495;-75
2023/10/26 10:58:55;;;;;;;20.00;13.17;;;15.70;93.10;;;;;;5012541;28;20491;-75
2023/10/26 11:01:23;;;;;;;21.13;13.20;;;15.80;93.30;;;;;;5012551;28;20449;-75
2023/10/26 11:03:51;;;;;;;17.00;13.17;;;15.50;93.20;;;;;;5012533;28;20453;-75
2023/10/26 11:06:19;;;;;;;20.23;11.90;;;15.20;91.90;;;;;;5012133;28;20464;-75
2023/10/26 11:08:46;;;;;;;17.63;12.17;;;15.10;91.50;;;;;;5012428;28;20879;-75
2023/10/26 11:11:30;;;;;;;15.20;11.73;;;15.40;93.10;;;;;;5012197;28;20453;-75
2023/10/26 11:14:10;;;;;;;15.47;10.67;;;15.20;89.40;;;;;;5012341;28;20511;-75
2023/10/26 11:16:38;;;;;;;15.57;12.10;;;15.20;91.30;;;;;;5001752;28;20528;-75
2023/10/26 11:19:07;;;;;;;17.30;12.30;;;15.20;92.90;;;;;;4992080;28;20540;-75
2023/10/26 11:21:35;;;;;;;15.10;10.40;;;15.00;93.00;;;;;;4992525;28;20454;-75
2023/10/26 11:24:02;;;;;;;15.53;11.97;;;15.00;89.20;;;;;;4992280;28;20757;-75
2023/10/26 11:26:29;;;;;;;20.07;12.53;;;15.10;89.30;;;;;;4992600;28;20462;-75
2023/10/26 11:28:56;;;;;;;18.03;14.00;;;15.00;92.10;;;;;;4992051;28;20493;-75
2023/10/26 11:31:36;;;;;;;19.37;13.90;;;14.30;92.70;;;;;;4992363;28;20508;-75
2023/10/26 11:34:07;;;;;;;17.27;12.87;;;14.20;92.70;;;;;;4992339;28;20458;-75
2023/10/26 11:36:36;;;;;;;17.77;13.77;;;14.00;92.60;;;;;;4992122;28;20454;-74
2023/10/26 11:39:03;;;;;;;30.43;15.70;;;13.90;94.30;;;;;;4992354;28;20825;-75
2023/10/26 11:41:30;;;;;;;15.03;12.30;;;13.80;94.00;;;;;;4992122;28;20458;-74
2023/10/26 11:43:58;;;;;;;18.20;13.83;;;13.80;94.80;;;;;;4992042;28;20465;-74
2023/10/26 11:46:32;;;;;;;17.43;14.07;;;13.60;94.10;;;;;;4991724;28;20516;-74
2023/10/26 11:48:59;;;;;;;21.00;14.90;;;13.50;95.80;;;;;;4992020;28;20984;-74
2023/10/26 11:51:27;;;;;;;22.23;16.20;;;13.30;95.70;;;;;;4991930;28;20477;-74
2023/10/26 11:53:57;;;;;;;20.53;16.70;;;13.20;97.00;;;;;;4992036;28;20446;-74
2023/10/26 11:56:25;;;;;;;21.50;18.53;;;13.30;99.00;;;;;;4993368;28;20965;-74
2023/10/26 11:58:52;;;;;;;29.47;26.93;;;13.30;99.00;;;;;;5008054;28;20445;-74
2023/10/26 12:01:19;;;;;;;25.03;22.37;;;13.60;99.10;;;;;;5015270;28;20449;-74
2023/10/26 12:03:47;;;;;;;27.67;25.20;;;13.80;99.20;;;;;;5014633;28;20460;-74
2023/10/26 12:06:14;;;;;;;25.50;18.40;;;14.00;99.10;;;;;;5014759;28;20460;-74
2023/10/26 12:08:41;;;;;;;19.13;14.20;;;14.10;96.00;;;;;;5014738;28;20493;-74
2023/10/26 12:11:11;;;;;;;17.63;13.90;;;14.20;95.30;;;;;;5014905;28;20456;-74
2023/10/26 12:13:39;;;;;;;15.97;12.97;;;14.10;92.70;;;;;;5014248;28;20537;-74